Time;durP1;ratioP1;P1;durP2;ratioP2;P2;SDS_P1;SDS_P2;PMS_P1;PMS_P2;Temp;Humidity;BMP_temperature;BMP_pressure;BME280_temperature;BME280_humidity;BME280_pressure;Samples;Min_cycle;Max_cycle;Signal;HPM_P1;HPM_P2
2022/05/07 00:00:39;;;;;;;;;34.75;34.75;;;;;16.19;52.13;101630.28;5036606;28;45718;-80
2022/05/07 00:03:06;;;;;;;;;42.00;41.75;;;;;16.14;52.12;101623.28;5036423;28;45603;-81
2022/05/07 00:05:31;;;;;;;;;30.50;28.75;;;;;16.09;52.51;101629.63;5036139;28;45361;-81
2022/05/07 00:07:57;;;;;;;;;18.75;18.75;;;;;16.05;52.38;101630.63;5034432;28;45385;-81
2022/05/07 00:10:23;;;;;;;;;65.67;57.33;;;;;15.96;52.72;101623.75;5035256;28;45360;-81
2022/05/07 00:12:48;;;;;;;;;56.00;51.00;;;;;15.92;52.97;101616.75;5036303;28;46046;-80
2022/05/07 00:15:13;;;;;;;;;56.33;51.67;;;;;15.95;53.11;101622.88;5041890;28;45523;-81
2022/05/07 00:20:23;;;;;;;;;81.67;69.00;;;;;15.86;53.67;101622.25;5036525;28;45439;-80
2022/05/07 00:22:48;;;;;;;;;97.00;80.33;;;;;15.82;53.79;101610.78;5034809;28;45375;-78
2022/05/07 00:25:13;;;;;;;;;98.33;79.00;;;;;15.77;54.03;101613.53;5033869;28;53751;-77
2022/05/07 00:27:39;;;;;;;;;91.00;75.00;;;;;15.73;54.38;101614.53;5034737;28;45417;-77
2022/05/07 00:30:06;;;;;;;;;87.33;73.33;;;;;15.71;54.21;101624.31;5033502;28;45492;-78
2022/05/07 00:32:31;;;;;;;;;93.67;77.33;;;;;15.66;54.68;101614.72;5034590;28;45419;-77
2022/05/07 00:34:56;;;;;;;;;83.00;69.67;;;;;15.63;54.69;101613.84;5032821;28;45388;-77
2022/05/07 00:37:23;;;;;;;;;31.25;30.25;;;;;15.59;54.74;101609.53;5034754;28;45522;-77
2022/05/07 00:39:49;;;;;;;;;80.33;67.67;;;;;15.60;55.09;101615.72;5034160;28;45561;-77
2022/05/07 00:42:15;;;;;;;;;101.33;85.67;;;;;15.51;55.13;101603.50;5034702;28;46285;-77
2022/05/07 00:44:41;;;;;;;;;100.00;84.33;;;;;15.50;55.29;101608.88;5034904;28;45436;-78
2022/05/07 00:47:13;;;;;;;;;99.00;83.00;;;;;15.44;55.50;101613.44;5034625;28;45378;-76
2022/05/07 00:49:39;;;;;;;;;99.00;82.00;;;;;15.36;55.51;101607.41;5034329;28;45370;-78
2022/05/07 00:52:06;;;;;;;;;100.00;85.00;;;;;15.34;55.75;101601.25;5034629;28;45435;-77
2022/05/07 00:54:31;;;;;;;;;99.33;82.00;;;;;15.28;55.92;101596.06;5034105;28;45516;-78
2022/05/07 00:56:57;;;;;;;;;100.00;82.00;;;;;15.31;56.05;101605.78;5034675;28;45473;-78
2022/05/07 00:59:23;;;;;;;;;99.67;81.67;;;;;15.24;56.17;101603.28;5034249;28;45414;-78
2022/05/07 01:01:48;;;;;;;;;99.00;82.00;;;;;15.19;56.21;101593.63;5034560;28;46594;-78
2022/05/07 01:04:14;;;;;;;;;99.33;82.67;;;;;15.17;56.42;101598.09;5035131;28;45383;-78
2022/05/07 01:06:39;;;;;;;;;99.33;82.67;;;;;15.17;56.61;101598.09;5035261;28;45478;-77
2022/05/07 01:09:05;;;;;;;;;98.33;79.00;;;;;15.10;56.37;101605.34;5034622;28;45519;-77
2022/05/07 01:11:31;;;;;;;;;96.50;79.00;;;;;15.08;56.50;101597.41;5031741;28;45419;-78
2022/05/07 01:13:57;;;;;;;;;96.67;79.00;;;;;15.06;56.92;101599.22;5034271;28;45382;-78
2022/05/07 01:16:24;;;;;;;;;97.00;79.00;;;;;14.98;56.98;101594.97;5034496;28;45415;-77
2022/05/07 01:18:49;;;;;;;;;100.00;84.67;;;;;14.97;56.91;101607.44;5034250;28;45459;-78
2022/05/07 01:21:17;;;;;;;;;99.00;81.67;;;;;14.92;57.09;101601.31;5032047;28;47131;-78
2022/05/07 01:23:43;;;;;;;;;99.00;82.00;;;;;14.91;57.28;101604.91;5032451;28;46115;-77
2022/05/07 01:26:10;;;;;;;;;96.00;79.00;;;;;14.86;57.44;101596.13;5033750;28;45504;-77
2022/05/07 01:28:36;;;;;;;;;99.33;82.00;;;;;14.84;57.13;101604.13;5034296;28;45474;-77
2022/05/07 01:31:02;;;;;;;;;97.00;79.00;;;;;14.79;57.04;101597.16;5034047;28;45382;-78
2022/05/07 01:33:28;;;;;;;;;100.00;82.00;;;;;14.74;57.10;101592.84;5032186;28;45457;-79
2022/05/07 01:35:54;;;;;;;;;96.00;79.00;;;;;14.75;57.14;101609.66;5032682;28;45663;-77
2022/05/07 01:38:20;;;;;;;;;96.00;78.67;;;;;14.70;57.52;101599.13;5034444;28;45474;-77
2022/05/07 01:40:45;;;;;;;;;96.00;79.00;;;;;14.67;57.44;101593.00;5033398;28;45461;-78
2022/05/07 01:43:11;;;;;;;;;96.00;79.00;;;;;14.63;57.61;101585.97;5033751;28;45488;-78
2022/05/07 01:45:36;;;;;;;;;99.00;82.00;;;;;14.57;58.06;101584.28;5034225;28;45648;-78
2022/05/07 01:48:11;;;;;;;;;96.00;78.67;;;;;14.58;57.74;101594.03;5033701;28;45514;-76
2022/05/07 01:50:41;;;;;;;;;97.00;79.00;;;;;14.53;58.32;101593.22;5033974;28;47376;-77
2022/05/07 01:53:08;;;;;;;;;94.50;78.00;;;;;14.48;58.27;101589.78;5033395;28;45399;-77
2022/05/07 01:55:34;;;;;;;;;96.00;78.33;;;;;14.49;58.53;101592.41;5033712;28;45438;-81
2022/05/07 01:58:00;;;;;;;;;95.50;78.75;;;;;14.49;58.82;101596.88;5034169;28;45382;-80
2022/05/07 02:00:25;;;;;;;;;96.75;78.50;;;;;14.46;58.63;101589.81;5034767;28;45495;-81
2022/05/07 02:05:29;;;;;;;;;97.67;79.67;;;;;14.43;59.12;101586.34;5135660;27;45473;-80
2022/05/07 02:07:56;;;;;;;;;96.00;79.00;;;;;14.41;59.29;101586.38;5114510;27;45335;-80
2022/05/07 02:10:22;;;;;;;;;98.33;79.00;;;;;14.39;59.35;101583.75;5095203;27;45456;-81
2022/05/07 02:12:49;;;;;;;;;96.00;79.00;;;;;14.36;58.92;101594.47;5092252;27;45607;-81
2022/05/07 02:15:15;;;;;;;;;94.00;78.00;;;;;14.32;58.74;101584.78;5095656;27;45545;-80
2022/05/07 02:17:40;;;;;;;;;97.00;79.00;;;;;14.32;59.30;101591.88;5093075;27;45525;-80
2022/05/07 02:20:06;;;;;;;;;96.00;79.00;;;;;14.24;59.25;101581.38;5092773;27;45332;-80
2022/05/07 02:22:32;;;;;;;;;98.00;79.00;;;;;14.26;59.17;101590.22;5092374;27;45585;-80
2022/05/07 02:24:58;;;;;;;;;97.50;81.00;;;;;14.24;59.48;101589.34;5091777;27;45489;-80
2022/05/07 02:27:24;;;;;;;;;97.00;80.33;;;;;14.19;59.37;101578.81;5091015;27;45499;-80
2022/05/07 02:29:49;;;;;;;;;96.25;79.00;;;;;14.18;59.52;101576.19;5074658;27;45544;-81
2022/05/07 02:32:15;;;;;;;;;98.50;79.00;;;;;14.17;59.92;101588.59;5097332;27;45515;-81
2022/05/07 02:34:42;;;;;;;;;97.00;79.00;;;;;14.12;60.03;101592.25;5096209;27;45935;-81
2022/05/07 02:37:07;;;;;;;;;96.00;79.00;;;;;14.10;60.31;101586.09;5095480;27;45505;-81
2022/05/07 02:39:33;;;;;;;;;96.00;79.00;;;;;14.08;60.21;101579.94;5091531;27;45702;-81
2022/05/07 02:44:44;;;;;;;;;95.00;77.50;;;;;13.97;60.51;101578.34;5090517;27;45332;-77
2022/05/07 02:47:09;;;;;;;;;94.50;78.00;;;;;13.96;60.31;101584.56;5072236;27;45615;-81
2022/05/07 02:49:35;;;;;;;;;97.50;79.00;;;;;13.96;60.35;101587.22;5092098;27;45350;-80
2022/05/07 02:52:01;;;;;;;;;86.33;72.00;;;;;13.92;60.55;101584.66;5091692;27;45350;-80
2022/05/07 02:54:26;;;;;;;;;96.00;79.25;;;;;13.87;60.88;101584.72;5091803;27;45447;-81
2022/05/07 02:56:54;;;;;;;;;93.00;76.00;;;;;13.82;61.11;101575.97;5091396;27;45368;-81
2022/05/07 02:59:19;;;;;;;;;93.25;76.50;;;;;13.77;61.39;101585.78;5091736;27;45393;-81
2022/05/07 03:01:45;;;;;;;;;96.75;78.50;;;;;13.70;61.56;101586.81;5091567;27;45394;-80
2022/05/07 03:04:10;;;;;;;;;93.00;77.00;;;;;13.62;61.39;101574.53;5083482;27;46424;-80
2022/05/07 03:06:37;;;;;;;;;94.00;77.00;;;;;13.63;61.81;101576.25;5071418;28;45422;-80
2022/05/07 03:09:03;;;;;;;;;93.00;76.50;;;;;13.61;61.45;101580.75;5072094;28;45439;-80
2022/05/07 03:11:29;;;;;;;;;94.00;78.00;;;;;13.57;61.91;101583.47;5036176;28;45608;-80
2022/05/07 03:13:54;;;;;;;;;93.50;76.50;;;;;13.53;62.24;101573.78;5053433;28;45379;-80
2022/05/07 03:16:20;;;;;;;;;95.50;78.00;;;;;13.47;62.48;101572.13;5044016;28;45380;-81
2022/05/07 03:18:45;;;;;;;;;94.00;78.00;;;;;13.45;62.65;101579.22;5039646;28;45510;-81
2022/05/07 03:21:12;;;;;;;;;93.00;77.00;;;;;13.45;63.10;101576.56;5038133;28;45357;-81
2022/05/07 03:23:37;;;;;;;;;94.00;78.00;;;;;13.35;63.45;101565.25;5037764;28;45388;-81
2022/05/07 03:26:05;;;;;;;;;95.00;78.00;;;;;13.35;63.63;101572.34;5036457;28;45385;-80
2022/05/07 03:28:30;;;;;;;;;93.00;76.00;;;;;13.31;63.62;101582.94;5037295;28;45543;-81
2022/05/07 03:30:55;;;;;;;;;93.75;78.00;;;;;13.28;63.79;101577.69;5038049;28;45431;-80
2022/05/07 03:33:21;;;;;;;;;98.00;79.00;;;;;13.27;63.89;101578.59;5038242;28;45391;-81
2022/05/07 03:35:47;;;;;;;;;101.50;83.00;;;;;13.25;64.36;101583.03;5039241;28;45424;-80
2022/05/07 03:38:12;;;;;;;;;98.50;81.75;;;;;13.24;64.10;101581.31;5019323;28;45632;-81
2022/05/07 03:40:38;;;;;;;;;100.00;84.75;;;;;13.20;64.34;101574.28;5036937;28;45494;-80
2022/05/07 03:43:04;;;;;;;;;99.25;81.25;;;;;13.14;64.60;101564.63;5035943;28;46023;-80
2022/05/07 03:45:30;;;;;;;;;99.00;80.33;;;;;13.23;65.05;101573.38;5039821;28;45388;-80
2022/05/07 03:47:56;;;;;;;;;96.00;78.67;;;;;13.24;64.94;101575.09;5044211;28;45328;-80
2022/05/07 03:50:21;;;;;;;;;99.00;82.00;;;;;13.20;64.92;101563.66;5057402;28;45546;-80
2022/05/07 03:55:31;;;;;;;;;93.25;76.50;;;;;13.24;64.95;101576.00;5059324;28;45360;-81
2022/05/07 03:57:56;;;;;;;;;97.00;79.00;;;;;13.21;65.03;101565.44;5042576;28;45367;-81
2022/05/07 04:00:22;;;;;;;;;97.00;79.00;;;;;13.20;65.04;101566.31;5059207;28;45419;-81
2022/05/07 04:02:47;;;;;;;;;96.50;79.00;;;;;13.19;65.16;101563.69;5057327;28;46326;-81
2022/05/07 04:05:13;;;;;;;;;95.50;78.75;;;;;13.21;64.95;101553.91;5057402;28;45513;-79
2022/05/07 04:07:38;;;;;;;;;97.00;79.67;;;;;13.19;65.29;101566.34;5056665;28;46026;-80
2022/05/07 04:10:05;;;;;;;;;99.50;82.00;;;;;13.15;65.59;101552.25;5055442;28;45454;-81
2022/05/07 04:12:30;;;;;;;;;96.75;79.00;;;;;13.16;65.70;101567.25;5055966;28;46119;-80
2022/05/07 04:15:00;;;;;;;;;96.67;79.00;;;;;13.13;65.83;101567.31;5039008;28;45495;-80
2022/05/07 04:17:25;;;;;;;;;99.00;81.00;;;;;13.13;65.52;101573.50;5057506;28;45362;-80
2022/05/07 04:19:51;;;;;;;;;96.50;79.00;;;;;13.14;65.92;101569.06;5057769;28;45313;-79
2022/05/07 04:22:16;;;;;;;;;99.25;82.50;;;;;13.13;65.69;101572.59;5056242;28;45459;-81
2022/05/07 04:24:42;;;;;;;;;98.00;81.50;;;;;13.13;65.99;101569.94;5056787;28;45516;-80
2022/05/07 04:27:08;;;;;;;;;97.50;79.50;;;;;13.08;65.94;101561.19;5055553;28;45568;-80
2022/05/07 04:29:33;;;;;;;;;99.00;80.25;;;;;13.09;66.39;101562.97;5057234;28;45505;-81
2022/05/07 04:31:59;;;;;;;;;90.33;75.00;;;;;13.06;66.49;101563.88;5057012;28;45481;-81
2022/05/07 04:34:26;;;;;;;;;99.00;79.50;;;;;13.02;66.51;101564.81;5061247;28;45610;-80
2022/05/07 04:36:51;;;;;;;;;97.00;79.00;;;;;13.00;66.85;101560.41;5058418;28;45507;-81
2022/05/07 04:39:17;;;;;;;;;95.50;78.00;;;;;12.97;66.86;101564.88;5061839;28;45455;-80
2022/05/07 04:41:42;;;;;;;;;96.50;79.00;;;;;13.01;67.15;101572.78;5040396;28;45423;-80
2022/05/07 04:44:08;;;;;;;;;93.00;76.67;;;;;12.95;67.22;101566.69;5056764;28;45458;-82
2022/05/07 04:46:34;;;;;;;;;96.25;78.00;;;;;12.94;67.46;101572.88;5057968;28;45382;-81
2022/05/07 04:48:59;;;;;;;;;84.00;70.00;;;;;12.91;67.90;101572.06;5059048;28;45552;-80
2022/05/07 04:51:24;;;;;;;;;90.50;75.00;;;;;12.83;67.94;101558.00;5056776;28;45479;-81
2022/05/07 04:53:50;;;;;;;;;93.00;75.75;;;;;12.92;67.74;101573.78;5056448;28;45435;-81
2022/05/07 04:56:15;;;;;;;;;92.67;75.00;;;;;12.83;67.62;101561.56;5057268;28;45393;-81
2022/05/07 04:58:40;;;;;;;;;91.33;75.00;;;;;12.84;67.90;101563.28;5038519;28;45518;-80
2022/05/07 05:01:06;;;;;;;;;91.00;75.25;;;;;12.91;68.10;101570.28;5055133;28;46071;-81
2022/05/07 05:03:31;;;;;;;;;93.50;77.00;;;;;12.90;68.18;101557.88;5055131;27;45490;-77
2022/05/07 05:05:56;;;;;;;;;93.25;76.00;;;;;12.95;67.63;101558.72;5054767;28;45379;-77
2022/05/07 05:08:22;;;;;;;;;96.00;78.00;;;;;12.97;68.03;101556.91;5054620;28;45375;-77
